Portada
METAR-TAF:

METAR-TAF

Aeroports :

Benson, Anglaterra

latitud: 51-37N, longitud: 001-05W, altitud: 63 m

Observació

L'informe es va fer fa 1 hora i 18 minuts, a les 14:50 UTC
Vent 9 kt del Sud/Sud-Oest
Temperatura 10°C
Humitat 76%
Pressió 1012 hPa
Visibilitat 10 km o més
Cel cobert a una alçada de 2400 ft

METAR: EGUB 071450Z 21009KT 9999 OVC024 10/06 Q1012

Hora: 16:08 (16:08 UTC)

Pronòstic

L'informe es va fer fa 2 hores i 32 minuts, a les 13:36 UTC
Pronòstic vàlid del 07 a les 15 UTC al 07 a les 18 UTC
Vent 10 kt del Sud/Sud-Oest
Visibilitat 10 km o més
Escasses núvols a una alçada de 2000 ft
Cel ennuvolat a una alçada de 2800 ft
Evolucionant progressivament
l' 07 a les 15 UTC al 07 a les 18 UTC
Cel ennuvolat a una alçada de 1500 ft

TAF: EGUB 071336Z 0715/0718 21010KT 9999 FEW020 BKN028 BECMG 0715/0718 BKN015

Observacions i pronòstics meteorològics de més de 4000 aeroports (METAR i TAF).

Les estacions disponibles són els punts grocs i vermells al mapa.

Posi el ratolí al punt desitjat per veure el nom de l'estació.

Feu clic per veure les observacions i els pronòstics meteorològics.

Per canviar el mapa: feu clic els botons verds amb una creu de color negre per apropar; al botó verd amb un guió per allunyar la imatge; o en les fletxes verdes per a mapes adjacents.


METAR-TAF: